Chikyu — JRAJ — position and weather

sailwx.info

Track history (hours):
 
Tides and Currents Weather Stations Pressure Air Temp Water Temp Dewpoint Dewpoint Depression Visibility Wind Speed Wind Dir Waves Ship Positions

Oceanographic research ship Chikyu (Japan)

Last reported at 2020-Aug-02 23:58 UTC. Time now 2020-Aug-05 05:43 UTC.
Position N 35°02' E 138°31'.

Length 210 m; beam 38 m.

Type: Other ship. MMSI: 432522000.

Date/timePositionNaut miles runAvg speedWind from/ knotsBaromVisibWave heightAir tempDewpointWater temp
2020-Aug-02 23:58N 35°02' E 138°31'0 0.0
2020-Aug-02 17:28N 35°02' E 138°31'0 0.0
2020-Aug-02 16:28N 35°02' E 138°31'0 0.0
2020-Aug-02 13:25N 35°02' E 138°31'0 0.0
2020-Aug-02 12:58N 35°02' E 138°31'0 0.0
2020-Aug-02 12:28N 35°02' E 138°31'0 0.0
2020-Aug-02 10:28N 35°02' E 138°31'0 0.0
2020-Aug-02 09:58N 35°02' E 138°31'0 0.0
2020-Aug-02 06:28N 35°02' E 138°31'0 0.0
2020-Aug-02 04:58N 35°02' E 138°31'0 0.0
2020-Aug-02 04:28N 35°02' E 138°31'0 0.0
2020-Aug-02 03:58N 35°02' E 138°31'0 0.0
2020-Aug-02 02:58N 35°02' E 138°31'0 0.0
2020-Aug-02 01:58N 35°02' E 138°31'0 0.0
2020-Aug-02 00:58N 35°02' E 138°31'0 0.0
2020-Aug-01 22:25N 35°02' E 138°31'0 0.0
2020-Aug-01 15:58N 35°02' E 138°31'0 0.0
2020-Aug-01 13:55N 35°02' E 138°31'0 0.0
2020-Aug-01 11:28N 35°02' E 138°31'0 0.0
2020-Aug-01 09:28N 35°02' E 138°31'0 0.0
2020-Aug-01 05:19N 35°02' E 138°31'0 0.0
2020-Aug-01 02:55N 35°02' E 138°31'0 0.0
2020-Aug-01 02:25N 35°02' E 138°31'5 2.4
2020-Aug-01 00:31N 35°02' E 138°36'0 0.1
2020-Aug-01 00:00N 35°02' E 138°36'1 0.3
2020-Jul-31 21:30N 35°02' E 138°37'1 0.3
2020-Jul-31 18:00N 35°03' E 138°37'0 0.1
2020-Jul-31 15:30N 35°04' E 138°37'0 0.0
2020-Jul-31 12:00N 35°04' E 138°37'0 0.1
2020-Jul-31 10:00N 35°03' E 138°37'0 0.1
2020-Jul-31 06:30N 35°04' E 138°38'0 0.2
2020-Jul-31 06:00N 35°04' E 138°38'0 0.2
2020-Jul-31 05:00N 35°04' E 138°38'0 0.3
2020-Jul-31 04:00N 35°03' E 138°38'0 0.1
2020-Jul-31 01:00N 35°04' E 138°38'0 0.2
2020-Jul-31 00:30N 35°04' E 138°38'0 0.2
2020-Jul-30 22:30N 35°04' E 138°38'0 0.1
2020-Jul-30 21:30N 35°04' E 138°38'0 0.3
2020-Jul-30 20:30N 35°04' E 138°38'0 0.1
2020-Jul-30 19:30N 35°03' E 138°38'1 0.2
2020-Jul-30 13:30N 35°04' E 138°37'0 0.1
2020-Jul-30 10:30N 35°04' E 138°37'0 0.0
2020-Jul-30 09:00N 35°04' E 138°37'0 0.4
2020-Jul-30 08:30N 35°04' E 138°37'1 0.3
2020-Jul-30 06:00N 35°04' E 138°38'0 0.2
2020-Jul-30 04:00N 35°04' E 138°38'1 0.1
2020-Jul-29 21:00N 35°04' E 138°38'0 0.1
2020-Jul-29 20:30N 35°04' E 138°38'0 0.2
2020-Jul-29 19:30N 35°04' E 138°38'0 0.1
2020-Jul-29 16:58N 35°04' E 138°38'0 0.1
2020-Jul-29 16:30N 35°04' E 138°38'0 0.1
2020-Jul-29 15:30N 35°04' E 138°38'0 0.1
2020-Jul-29 14:30N 35°04' E 138°38'0 0.1
2020-Jul-29 09:30N 35°04' E 138°38'1 0.2
2020-Jul-29 05:00N 35°03' E 138°37'0 0.2
2020-Jul-29 03:00N 35°04' E 138°37'1 0.6
2020-Jul-29 01:00N 35°02' E 138°37'4 2.6
2020-Jul-28 23:30N 35°02' E 138°32'1 0.3
2020-Jul-28 19:30N 35°02' E 138°34'1 0.5
2020-Jul-28 17:00N 35°03' E 138°35'1 0.4
2020-Jul-28 15:00N 35°03' E 138°37'1 0.4
2020-Jul-28 13:00N 35°03' E 138°38'0 0.0
2020-Jul-28 11:30N 35°03' E 138°38'0 0.0
2020-Jul-28 11:00N 35°03' E 138°38'0 0.1
2020-Jul-28 10:30N 35°03' E 138°38'23 2.5
2020-Jul-28 01:30N 34°42' E 138°28'17 6.8
2020-Jul-27 23:00N 34°26' E 138°22'  
Track history (hours):
 
Tides and Currents Weather Stations Pressure Air Temp Water Temp Dewpoint Dewpoint Depression Visibility Wind Speed Wind Dir Waves Ship Positions

Oceanographic research ship Chikyu (Japan)

Last reported at 2020-Aug-02 23:58 UTC. Time now 2020-Aug-05 05:43 UTC.
Position N 35°02' E 138°31'.

Length 210 m; beam 38 m.

Type: Other ship. MMSI: 432522000.

Date/timePositionNaut miles runAvg speedWind from/ knotsBaromVisibWave heightAir tempDewpointWater temp
2020-Aug-02 23:58N 35°02' E 138°31'0 0.0
2020-Aug-02 17:28N 35°02' E 138°31'0 0.0
2020-Aug-02 16:28N 35°02' E 138°31'0 0.0
2020-Aug-02 13:25N 35°02' E 138°31'0 0.0
2020-Aug-02 12:58N 35°02' E 138°31'0 0.0
2020-Aug-02 12:28N 35°02' E 138°31'0 0.0
2020-Aug-02 10:28N 35°02' E 138°31'0 0.0
2020-Aug-02 09:58N 35°02' E 138°31'0 0.0
2020-Aug-02 06:28N 35°02' E 138°31'0 0.0
2020-Aug-02 04:58N 35°02' E 138°31'0 0.0
2020-Aug-02 04:28N 35°02' E 138°31'0 0.0
2020-Aug-02 03:58N 35°02' E 138°31'0 0.0
2020-Aug-02 02:58N 35°02' E 138°31'0 0.0
2020-Aug-02 01:58N 35°02' E 138°31'0 0.0
2020-Aug-02 00:58N 35°02' E 138°31'0 0.0
2020-Aug-01 22:25N 35°02' E 138°31'0 0.0
2020-Aug-01 15:58N 35°02' E 138°31'0 0.0
2020-Aug-01 13:55N 35°02' E 138°31'0 0.0
2020-Aug-01 11:28N 35°02' E 138°31'0 0.0
2020-Aug-01 09:28N 35°02' E 138°31'0 0.0
2020-Aug-01 05:19N 35°02' E 138°31'0 0.0
2020-Aug-01 02:55N 35°02' E 138°31'0 0.0
2020-Aug-01 02:25N 35°02' E 138°31'5 2.4
2020-Aug-01 00:31N 35°02' E 138°36'0 0.1
2020-Aug-01 00:00N 35°02' E 138°36'1 0.3
2020-Jul-31 21:30N 35°02' E 138°37'1 0.3
2020-Jul-31 18:00N 35°03' E 138°37'0 0.1
2020-Jul-31 15:30N 35°04' E 138°37'0 0.0
2020-Jul-31 12:00N 35°04' E 138°37'0 0.1
2020-Jul-31 10:00N 35°03' E 138°37'0 0.1
2020-Jul-31 06:30N 35°04' E 138°38'0 0.2
2020-Jul-31 06:00N 35°04' E 138°38'0 0.2
2020-Jul-31 05:00N 35°04' E 138°38'0 0.3
2020-Jul-31 04:00N 35°03' E 138°38'0 0.1
2020-Jul-31 01:00N 35°04' E 138°38'0 0.2
2020-Jul-31 00:30N 35°04' E 138°38'0 0.2
2020-Jul-30 22:30N 35°04' E 138°38'0 0.1
2020-Jul-30 21:30N 35°04' E 138°38'0 0.3
2020-Jul-30 20:30N 35°04' E 138°38'0 0.1
2020-Jul-30 19:30N 35°03' E 138°38'1 0.2
2020-Jul-30 13:30N 35°04' E 138°37'0 0.1
2020-Jul-30 10:30N 35°04' E 138°37'0 0.0
2020-Jul-30 09:00N 35°04' E 138°37'0 0.4
2020-Jul-30 08:30N 35°04' E 138°37'1 0.3
2020-Jul-30 06:00N 35°04' E 138°38'0 0.2
2020-Jul-30 04:00N 35°04' E 138°38'1 0.1
2020-Jul-29 21:00N 35°04' E 138°38'0 0.1
2020-Jul-29 20:30N 35°04' E 138°38'0 0.2
2020-Jul-29 19:30N 35°04' E 138°38'0 0.1
2020-Jul-29 16:58N 35°04' E 138°38'0 0.1
2020-Jul-29 16:30N 35°04' E 138°38'0 0.1
2020-Jul-29 15:30N 35°04' E 138°38'0 0.1
2020-Jul-29 14:30N 35°04' E 138°38'0 0.1
2020-Jul-29 09:30N 35°04' E 138°38'1 0.2
2020-Jul-29 05:00N 35°03' E 138°37'0 0.2
2020-Jul-29 03:00N 35°04' E 138°37'1 0.6
2020-Jul-29 01:00N 35°02' E 138°37'4 2.6
2020-Jul-28 23:30N 35°02' E 138°32'1 0.3
2020-Jul-28 19:30N 35°02' E 138°34'1 0.5
2020-Jul-28 17:00N 35°03' E 138°35'1 0.4
2020-Jul-28 15:00N 35°03' E 138°37'1 0.4
2020-Jul-28 13:00N 35°03' E 138°38'0 0.0
2020-Jul-28 11:30N 35°03' E 138°38'0 0.0
2020-Jul-28 11:00N 35°03' E 138°38'0 0.1
2020-Jul-28 10:30N 35°03' E 138°38'23 2.5
2020-Jul-28 01:30N 34°42' E 138°28'17 6.8
2020-Jul-27 23:00N 34°26' E 138°22'  

Dump ship's entire track history